MSC Ines — 3EFZ3 — position and weather

sailwx.info

Track history (hours):
 
Tides and Currents Weather Stations Pressure Air Temp Water Temp Dewpoint Dewpoint Depression Visibility Wind Speed Wind Dir Waves Ship Positions

MSC Ines

Last reported at 2017-Jul-21 14:30 UTC. Time now 2017-Jul-21 14:49 UTC.
Position S 29°53' E 031°01'.

Length 349 m; draft 9 m.

Type: Ship (hazmat cat A). MMSI: 356112000.

Date/timePositionNaut miles runAvg speedWind from/ knotsBaromVisibWave heightAir tempDewpointWater temp
2017-Jul-21 14:30S 29°53' E 031°01'0 0.0
2017-Jul-21 13:57S 29°53' E 031°01'0 0.0
2017-Jul-21 13:30S 29°53' E 031°01'0 0.0
2017-Jul-21 13:00S 29°53' E 031°01'0 0.0
2017-Jul-21 12:30S 29°53' E 031°01'0 0.0
2017-Jul-21 12:00S 29°53' E 031°01'0 0.0
2017-Jul-21 11:27S 29°53' E 031°01'0 0.0
2017-Jul-21 10:57S 29°53' E 031°01'0 0.0
2017-Jul-21 10:30S 29°53' E 031°01'0 0.0
2017-Jul-21 10:00S 29°53' E 031°01'0 0.0
2017-Jul-21 09:30S 29°53' E 031°01'0 0.0
2017-Jul-21 09:00S 29°53' E 031°01'0 0.0
2017-Jul-21 08:30S 29°53' E 031°01'0 0.0
2017-Jul-21 07:57S 29°53' E 031°01'0 0.0
2017-Jul-21 07:30S 29°53' E 031°01'0 0.0
2017-Jul-21 06:57S 29°53' E 031°01'0 0.0
2017-Jul-21 06:30S 29°53' E 031°01'0 0.0
2017-Jul-21 06:00S 29°53' E 031°01'1 1.1
2017-Jul-21 05:30S 29°52' E 031°02'4 8.6
2017-Jul-21 05:00S 29°49' E 031°05'3 6.3
2017-Jul-21 04:30S 29°48' E 031°09'4 8.4
2017-Jul-21 04:00S 29°46' E 031°13'3 6.8
2017-Jul-21 03:30S 29°43' E 031°15'3 6.3
2017-Jul-21 03:00S 29°46' E 031°15'3 6.7
2017-Jul-21 02:31S 29°50' E 031°14'3 6.8
2017-Jul-21 02:00S 29°53' E 031°14'3 6.9
2017-Jul-21 01:31S 29°56' E 031°14'1 2.1
2017-Jul-21 01:00S 29°57' E 031°15'4 8.9
2017-Jul-21 00:30S 29°53' E 031°15'4 8.9
2017-Jul-21 00:00S 29°48' E 031°16'3 6.8
2017-Jul-20 23:30S 29°45' E 031°17'2 4.9
2017-Jul-20 23:00S 29°43' E 031°19'2 4.8
2017-Jul-20 22:30S 29°41' E 031°21'3 5.8
2017-Jul-20 22:00S 29°39' E 031°22'3 5.3
2017-Jul-20 21:30S 29°41' E 031°21'1 1.5
2017-Jul-20 21:00S 29°41' E 031°21'2 4.8
2017-Jul-20 20:30S 29°39' E 031°22'2 4.8
2017-Jul-20 20:00S 29°37' E 031°22'3 5.1
2017-Jul-20 19:31S 29°34' E 031°23'3 5.7
2017-Jul-20 19:00S 29°31' E 031°23'3 5.9
2017-Jul-20 18:30S 29°28' E 031°23'1 2.5
2017-Jul-20 18:00S 29°27' E 031°23'4 7.7
2017-Jul-20 17:31S 29°31' E 031°23'4 7.7
2017-Jul-20 17:00S 29°35' E 031°22'4 7.6
2017-Jul-20 16:30S 29°39' E 031°21'4 7.8
2017-Jul-20 16:01S 29°42' E 031°21'2 3.6
2017-Jul-20 15:30S 29°44' E 031°20'2 4.8
2017-Jul-20 15:01S 29°42' E 031°20'5 5.1
2017-Jul-20 14:00S 29°37' E 031°21'3 5.3
2017-Jul-20 13:30S 29°34' E 031°22'3 5.4
2017-Jul-20 13:00S 29°31' E 031°22'3 5.2
2017-Jul-20 12:30S 29°29' E 031°22'3 5.4
2017-Jul-20 12:00S 29°26' E 031°23'3 5.2
2017-Jul-20 11:31S 29°29' E 031°23'4 7.8
2017-Jul-20 11:00S 29°33' E 031°22'4 7.9
2017-Jul-20 10:30S 29°36' E 031°22'4 7.9
2017-Jul-20 10:00S 29°40' E 031°21'1 2.9
2017-Jul-20 09:30S 29°39' E 031°22'3 5.0
2017-Jul-20 09:00S 29°37' E 031°22'3 5.1
2017-Jul-20 08:30S 29°34' E 031°22'3 5.1
2017-Jul-20 08:00S 29°32' E 031°22'3 5.5
2017-Jul-20 07:30S 29°29' E 031°22'4 9.0
2017-Jul-20 07:00S 29°33' E 031°22'713.2
2017-Jul-20 06:30S 29°40' E 031°20'4 8.1
2017-Jul-20 06:00S 29°44' E 031°19'3 5.2
2017-Jul-20 05:30S 29°46' E 031°19'2 4.3
2017-Jul-20 05:00S 29°44' E 031°18'3 5.3
2017-Jul-20 04:30S 29°42' E 031°17'3 5.9
2017-Jul-20 04:00S 29°39' E 031°17'3 6.0
2017-Jul-20 03:30S 29°36' E 031°17'3 6.0
2017-Jul-20 03:00S 29°33' E 031°17'2 4.2
2017-Jul-20 02:30S 29°35' E 031°16'3 6.8
2017-Jul-20 02:00S 29°38' E 031°17'3 6.7
2017-Jul-20 01:30S 29°41' E 031°17'3 6.7
2017-Jul-20 01:00S 29°45' E 031°17'1 1.3
2017-Jul-20 00:30S 29°45' E 031°17'3 6.4
2017-Jul-20 00:00S 29°41' E 031°17'3 6.2
2017-Jul-19 23:30S 29°38' E 031°18'3 6.3
2017-Jul-19 23:00S 29°35' E 031°18'2 4.6
2017-Jul-19 22:30S 29°33' E 031°17'4 7.5
2017-Jul-19 22:00S 29°37' E 031°17'3 6.0
2017-Jul-19 21:30S 29°40' E 031°17'3 5.4
2017-Jul-19 21:00S 29°42' E 031°17'3 5.0
2017-Jul-19 20:30S 29°45' E 031°17'1 2.4
2017-Jul-19 20:00S 29°44' E 031°16'3 6.9
2017-Jul-19 19:30S 29°40' E 031°16'3 6.7
2017-Jul-19 19:00S 29°37' E 031°17'3 6.6
2017-Jul-19 18:30S 29°34' E 031°17'2 4.4
2017-Jul-19 18:00S 29°36' E 031°16'10 1.5
2017-Jul-19 11:18S 29°45' E 031°22'1 4.0
2017-Jul-19 11:00S 29°46' E 031°21'3 6.2
2017-Jul-19 10:30S 29°43' E 031°21'3 6.3
2017-Jul-19 10:00S 29°40' E 031°20'3 6.3
2017-Jul-19 09:30S 29°36' E 031°20'3 6.1
2017-Jul-19 09:00S 29°33' E 031°20'1 2.5
2017-Jul-19 08:30S 29°34' E 031°19'3 6.7
2017-Jul-19 08:00S 29°38' E 031°19'3 6.7
2017-Jul-19 07:30S 29°41' E 031°19'4 7.5
2017-Jul-19 07:00S 29°45' E 031°20'1 1.8
2017-Jul-19 06:30S 29°44' E 031°19'611.9
2017-Jul-19 06:00S 29°38' E 031°19'4 8.7
2017-Jul-19 05:30S 29°34' E 031°18'1 1.8
2017-Jul-19 05:00S 29°35' E 031°19'3 6.8
2017-Jul-19 04:30S 29°38' E 031°19'3 6.9
2017-Jul-19 04:00S 29°41' E 031°19'3 5.9
2017-Jul-19 03:30S 29°44' E 031°19'3 5.6
2017-Jul-19 03:00S 29°42' E 031°19'3 6.1
2017-Jul-19 02:30S 29°39' E 031°18'3 6.4
2017-Jul-19 02:00S 29°36' E 031°17'1 2.4
2017-Jul-19 01:30S 29°35' E 031°16'3 6.6
2017-Jul-19 01:00S 29°39' E 031°16'3 6.6
2017-Jul-19 00:30S 29°42' E 031°17'1 2.7
2017-Jul-19 00:00S 29°43' E 031°18'3 5.9
2017-Jul-18 23:30S 29°40' E 031°18'3 6.0
2017-Jul-18 23:00S 29°37' E 031°17'3 6.1
2017-Jul-18 22:31S 29°34' E 031°16'3 6.1
2017-Jul-18 22:00S 29°37' E 031°16'3 6.7
2017-Jul-18 21:30S 29°40' E 031°17'3 6.2
2017-Jul-18 21:00S 29°43' E 031°17'2 4.0
2017-Jul-18 20:30S 29°42' E 031°16'3 6.3
2017-Jul-18 20:00S 29°39' E 031°15'3 6.5
2017-Jul-18 19:30S 29°35' E 031°14'1 1.4
2017-Jul-18 19:00S 29°35' E 031°15'3 6.8
2017-Jul-18 18:30S 29°39' E 031°16'3 6.7
2017-Jul-18 18:00S 29°42' E 031°17'1 2.2
2017-Jul-18 17:30S 29°43' E 031°16'3 6.6
2017-Jul-18 17:00S 29°40' E 031°16'3 6.5
2017-Jul-18 16:30S 29°37' E 031°15'2 4.1
2017-Jul-18 16:01S 29°35' E 031°14'3 6.5
2017-Jul-18 15:30S 29°38' E 031°12'2 3.6
2017-Jul-18 14:59S 29°39' E 031°11'0 0.1
2017-Jul-18 14:00S 29°39' E 031°11'0 0.1
2017-Jul-18 13:30S 29°39' E 031°11'0 0.0
2017-Jul-18 13:00S 29°39' E 031°11'0 0.1
2017-Jul-18 12:30S 29°39' E 031°11'0 0.0
2017-Jul-18 12:00S 29°39' E 031°11'0 0.1
2017-Jul-18 11:30S 29°39' E 031°11'0 0.0
2017-Jul-18 10:59S 29°39' E 031°11'0 0.0
2017-Jul-18 10:31S 29°39' E 031°11'0 0.0
2017-Jul-18 09:59S 29°39' E 031°11'0 0.0
2017-Jul-18 09:30S 29°39' E 031°11'0 0.0
2017-Jul-18 08:59S 29°39' E 031°11'0 0.1
2017-Jul-18 08:30S 29°39' E 031°11'0 0.0
2017-Jul-18 07:59S 29°39' E 031°11'0 0.0
2017-Jul-18 07:29S 29°39' E 031°11'0 0.0
2017-Jul-18 06:59S 29°39' E 031°11'0 0.0
2017-Jul-18 06:30S 29°39' E 031°11'0 0.1
2017-Jul-18 06:00S 29°39' E 031°11'0 0.1
2017-Jul-18 05:29S 29°39' E 031°11'0 0.0
2017-Jul-18 05:00S 29°39' E 031°11'0 0.2
2017-Jul-18 04:28S 29°39' E 031°11'0 0.1
2017-Jul-18 03:58S 29°39' E 031°11'0 0.0
2017-Jul-18 03:28S 29°39' E 031°11'0 0.0
2017-Jul-18 02:58S 29°39' E 031°11'0 0.1
2017-Jul-18 02:28S 29°39' E 031°11'0 0.1
2017-Jul-18 01:58S 29°39' E 031°11'0 0.0
2017-Jul-18 01:28S 29°39' E 031°11'0 0.1
2017-Jul-18 00:58S 29°39' E 031°11'0 0.0
2017-Jul-18 00:28S 29°39' E 031°11'0 0.0
2017-Jul-17 23:58S 29°39' E 031°11'0 0.1
2017-Jul-17 23:28S 29°39' E 031°11'0 0.1
2017-Jul-17 22:58S 29°39' E 031°11'0 0.2
2017-Jul-17 22:29S 29°39' E 031°11'0 0.2
2017-Jul-17 21:59S 29°39' E 031°11'0 0.0
2017-Jul-17 21:29S 29°39' E 031°11'0 0.1
2017-Jul-17 21:00S 29°39' E 031°11'0 0.0
2017-Jul-17 20:27S 29°39' E 031°11'0 0.0
2017-Jul-17 20:00S 29°39' E 031°11'0 0.0
2017-Jul-17 19:29S 29°39' E 031°11'0 0.1
2017-Jul-17 19:00S 29°39' E 031°11'0 0.0
2017-Jul-17 18:30S 29°39' E 031°11'0 0.1
2017-Jul-17 17:59S 29°39' E 031°11'0 0.1
2017-Jul-17 17:28S 29°39' E 031°11'0 0.2
2017-Jul-17 16:58S 29°39' E 031°11'0 0.1
2017-Jul-17 16:30S 29°39' E 031°11'0 0.0
2017-Jul-17 15:59S 29°39' E 031°11'0 0.0
2017-Jul-17 15:29S 29°39' E 031°11'0 0.1
2017-Jul-17 14:59S 29°39' E 031°11'0 0.1
2017-Jul-17 14:28S 29°39' E 031°11'0 0.0
2017-Jul-17 13:59S 29°39' E 031°11'0 0.1
2017-Jul-17 13:29S 29°39' E 031°11'0 0.0
2017-Jul-17 12:58S 29°39' E 031°11'0 0.0
2017-Jul-17 12:30S 29°39' E 031°11'0 0.2
2017-Jul-17 12:00S 29°39' E 031°11'2 4.8
2017-Jul-17 11:30S 29°38' E 031°13'4 8.0
2017-Jul-17 11:00S 29°37' E 031°18'3 5.9
2017-Jul-17 10:31S 29°38' E 031°21'4 7.2
2017-Jul-17 10:01S 29°41' E 031°21'4 7.2
2017-Jul-17 09:30S 29°45' E 031°20'2 3.4
2017-Jul-17 09:01S 29°47' E 031°21'3 5.2
2017-Jul-17 08:31S 29°44' E 031°22'2 5.0
2017-Jul-17 08:01S 29°42' E 031°22'3 5.0
2017-Jul-17 07:30S 29°39' E 031°23'3 5.0
2017-Jul-17 07:00S 29°37' E 031°24'2 4.9
2017-Jul-17 06:30S 29°35' E 031°25'2 4.8
2017-Jul-17 06:00S 29°32' E 031°25'1 2.8
2017-Jul-17 05:31S 29°34' E 031°25'4 7.9
2017-Jul-17 05:01S 29°37' E 031°24'4 7.8
2017-Jul-17 04:31S 29°41' E 031°22'4 7.6
2017-Jul-17 04:00S 29°45' E 031°21'4 7.2
2017-Jul-17 03:30S 29°48' E 031°20'4 7.3
2017-Jul-17 03:00S 29°52' E 031°18'4 7.5
2017-Jul-17 02:30S 29°55' E 031°17'611.8
2017-Jul-17 02:00S 30°01' E 031°15'815.2
2017-Jul-17 01:30S 30°08' E 031°11'815.4
2017-Jul-17 01:00S 30°15' E 031°07'815.5
2017-Jul-17 00:30S 30°21' E 031°03'815.6
2017-Jul-17 00:00S 30°28' E 030°58'68614.6
2017-Jul-15 00:59S 34°02' E 018°07'816.4
2017-Jul-15 00:30S 33°54' E 018°04'  
Track history (hours):
 
Tides and Currents Weather Stations Pressure Air Temp Water Temp Dewpoint Dewpoint Depression Visibility Wind Speed Wind Dir Waves Ship Positions

MSC Ines

Last reported at 2017-Jul-21 14:30 UTC. Time now 2017-Jul-21 14:49 UTC.
Position S 29°53' E 031°01'.

Length 349 m; draft 9 m.

Type: Ship (hazmat cat A). MMSI: 356112000.

Date/timePositionNaut miles runAvg speedWind from/ knotsBaromVisibWave heightAir tempDewpointWater temp
2017-Jul-21 14:30S 29°53' E 031°01'0 0.0
2017-Jul-21 13:57S 29°53' E 031°01'0 0.0
2017-Jul-21 13:30S 29°53' E 031°01'0 0.0
2017-Jul-21 13:00S 29°53' E 031°01'0 0.0
2017-Jul-21 12:30S 29°53' E 031°01'0 0.0
2017-Jul-21 12:00S 29°53' E 031°01'0 0.0
2017-Jul-21 11:27S 29°53' E 031°01'0 0.0
2017-Jul-21 10:57S 29°53' E 031°01'0 0.0
2017-Jul-21 10:30S 29°53' E 031°01'0 0.0
2017-Jul-21 10:00S 29°53' E 031°01'0 0.0
2017-Jul-21 09:30S 29°53' E 031°01'0 0.0
2017-Jul-21 09:00S 29°53' E 031°01'0 0.0
2017-Jul-21 08:30S 29°53' E 031°01'0 0.0
2017-Jul-21 07:57S 29°53' E 031°01'0 0.0
2017-Jul-21 07:30S 29°53' E 031°01'0 0.0
2017-Jul-21 06:57S 29°53' E 031°01'0 0.0
2017-Jul-21 06:30S 29°53' E 031°01'0 0.0
2017-Jul-21 06:00S 29°53' E 031°01'1 1.1
2017-Jul-21 05:30S 29°52' E 031°02'4 8.6
2017-Jul-21 05:00S 29°49' E 031°05'3 6.3
2017-Jul-21 04:30S 29°48' E 031°09'4 8.4
2017-Jul-21 04:00S 29°46' E 031°13'3 6.8
2017-Jul-21 03:30S 29°43' E 031°15'3 6.3
2017-Jul-21 03:00S 29°46' E 031°15'3 6.7
2017-Jul-21 02:31S 29°50' E 031°14'3 6.8
2017-Jul-21 02:00S 29°53' E 031°14'3 6.9
2017-Jul-21 01:31S 29°56' E 031°14'1 2.1
2017-Jul-21 01:00S 29°57' E 031°15'4 8.9
2017-Jul-21 00:30S 29°53' E 031°15'4 8.9
2017-Jul-21 00:00S 29°48' E 031°16'3 6.8
2017-Jul-20 23:30S 29°45' E 031°17'2 4.9
2017-Jul-20 23:00S 29°43' E 031°19'2 4.8
2017-Jul-20 22:30S 29°41' E 031°21'3 5.8
2017-Jul-20 22:00S 29°39' E 031°22'3 5.3
2017-Jul-20 21:30S 29°41' E 031°21'1 1.5
2017-Jul-20 21:00S 29°41' E 031°21'2 4.8
2017-Jul-20 20:30S 29°39' E 031°22'2 4.8
2017-Jul-20 20:00S 29°37' E 031°22'3 5.1
2017-Jul-20 19:31S 29°34' E 031°23'3 5.7
2017-Jul-20 19:00S 29°31' E 031°23'3 5.9
2017-Jul-20 18:30S 29°28' E 031°23'1 2.5
2017-Jul-20 18:00S 29°27' E 031°23'4 7.7
2017-Jul-20 17:31S 29°31' E 031°23'4 7.7
2017-Jul-20 17:00S 29°35' E 031°22'4 7.6
2017-Jul-20 16:30S 29°39' E 031°21'4 7.8
2017-Jul-20 16:01S 29°42' E 031°21'2 3.6
2017-Jul-20 15:30S 29°44' E 031°20'2 4.8
2017-Jul-20 15:01S 29°42' E 031°20'5 5.1
2017-Jul-20 14:00S 29°37' E 031°21'3 5.3
2017-Jul-20 13:30S 29°34' E 031°22'3 5.4
2017-Jul-20 13:00S 29°31' E 031°22'3 5.2
2017-Jul-20 12:30S 29°29' E 031°22'3 5.4
2017-Jul-20 12:00S 29°26' E 031°23'3 5.2
2017-Jul-20 11:31S 29°29' E 031°23'4 7.8
2017-Jul-20 11:00S 29°33' E 031°22'4 7.9
2017-Jul-20 10:30S 29°36' E 031°22'4 7.9
2017-Jul-20 10:00S 29°40' E 031°21'1 2.9
2017-Jul-20 09:30S 29°39' E 031°22'3 5.0
2017-Jul-20 09:00S 29°37' E 031°22'3 5.1
2017-Jul-20 08:30S 29°34' E 031°22'3 5.1
2017-Jul-20 08:00S 29°32' E 031°22'3 5.5
2017-Jul-20 07:30S 29°29' E 031°22'4 9.0
2017-Jul-20 07:00S 29°33' E 031°22'713.2
2017-Jul-20 06:30S 29°40' E 031°20'4 8.1
2017-Jul-20 06:00S 29°44' E 031°19'3 5.2
2017-Jul-20 05:30S 29°46' E 031°19'2 4.3
2017-Jul-20 05:00S 29°44' E 031°18'3 5.3
2017-Jul-20 04:30S 29°42' E 031°17'3 5.9
2017-Jul-20 04:00S 29°39' E 031°17'3 6.0
2017-Jul-20 03:30S 29°36' E 031°17'3 6.0
2017-Jul-20 03:00S 29°33' E 031°17'2 4.2
2017-Jul-20 02:30S 29°35' E 031°16'3 6.8
2017-Jul-20 02:00S 29°38' E 031°17'3 6.7
2017-Jul-20 01:30S 29°41' E 031°17'3 6.7
2017-Jul-20 01:00S 29°45' E 031°17'1 1.3
2017-Jul-20 00:30S 29°45' E 031°17'3 6.4
2017-Jul-20 00:00S 29°41' E 031°17'3 6.2
2017-Jul-19 23:30S 29°38' E 031°18'3 6.3
2017-Jul-19 23:00S 29°35' E 031°18'2 4.6
2017-Jul-19 22:30S 29°33' E 031°17'4 7.5
2017-Jul-19 22:00S 29°37' E 031°17'3 6.0
2017-Jul-19 21:30S 29°40' E 031°17'3 5.4
2017-Jul-19 21:00S 29°42' E 031°17'3 5.0
2017-Jul-19 20:30S 29°45' E 031°17'1 2.4
2017-Jul-19 20:00S 29°44' E 031°16'3 6.9
2017-Jul-19 19:30S 29°40' E 031°16'3 6.7
2017-Jul-19 19:00S 29°37' E 031°17'3 6.6
2017-Jul-19 18:30S 29°34' E 031°17'2 4.4
2017-Jul-19 18:00S 29°36' E 031°16'10 1.5
2017-Jul-19 11:18S 29°45' E 031°22'1 4.0
2017-Jul-19 11:00S 29°46' E 031°21'3 6.2
2017-Jul-19 10:30S 29°43' E 031°21'3 6.3
2017-Jul-19 10:00S 29°40' E 031°20'3 6.3
2017-Jul-19 09:30S 29°36' E 031°20'3 6.1
2017-Jul-19 09:00S 29°33' E 031°20'1 2.5
2017-Jul-19 08:30S 29°34' E 031°19'3 6.7
2017-Jul-19 08:00S 29°38' E 031°19'3 6.7
2017-Jul-19 07:30S 29°41' E 031°19'4 7.5
2017-Jul-19 07:00S 29°45' E 031°20'1 1.8
2017-Jul-19 06:30S 29°44' E 031°19'611.9
2017-Jul-19 06:00S 29°38' E 031°19'4 8.7
2017-Jul-19 05:30S 29°34' E 031°18'1 1.8
2017-Jul-19 05:00S 29°35' E 031°19'3 6.8
2017-Jul-19 04:30S 29°38' E 031°19'3 6.9
2017-Jul-19 04:00S 29°41' E 031°19'3 5.9
2017-Jul-19 03:30S 29°44' E 031°19'3 5.6
2017-Jul-19 03:00S 29°42' E 031°19'3 6.1
2017-Jul-19 02:30S 29°39' E 031°18'3 6.4
2017-Jul-19 02:00S 29°36' E 031°17'1 2.4
2017-Jul-19 01:30S 29°35' E 031°16'3 6.6
2017-Jul-19 01:00S 29°39' E 031°16'3 6.6
2017-Jul-19 00:30S 29°42' E 031°17'1 2.7
2017-Jul-19 00:00S 29°43' E 031°18'3 5.9
2017-Jul-18 23:30S 29°40' E 031°18'3 6.0
2017-Jul-18 23:00S 29°37' E 031°17'3 6.1
2017-Jul-18 22:31S 29°34' E 031°16'3 6.1
2017-Jul-18 22:00S 29°37' E 031°16'3 6.7
2017-Jul-18 21:30S 29°40' E 031°17'3 6.2
2017-Jul-18 21:00S 29°43' E 031°17'2 4.0
2017-Jul-18 20:30S 29°42' E 031°16'3 6.3
2017-Jul-18 20:00S 29°39' E 031°15'3 6.5
2017-Jul-18 19:30S 29°35' E 031°14'1 1.4
2017-Jul-18 19:00S 29°35' E 031°15'3 6.8
2017-Jul-18 18:30S 29°39' E 031°16'3 6.7
2017-Jul-18 18:00S 29°42' E 031°17'1 2.2
2017-Jul-18 17:30S 29°43' E 031°16'3 6.6
2017-Jul-18 17:00S 29°40' E 031°16'3 6.5
2017-Jul-18 16:30S 29°37' E 031°15'2 4.1
2017-Jul-18 16:01S 29°35' E 031°14'3 6.5
2017-Jul-18 15:30S 29°38' E 031°12'2 3.6
2017-Jul-18 14:59S 29°39' E 031°11'0 0.1
2017-Jul-18 14:00S 29°39' E 031°11'0 0.1
2017-Jul-18 13:30S 29°39' E 031°11'0 0.0
2017-Jul-18 13:00S 29°39' E 031°11'0 0.1
2017-Jul-18 12:30S 29°39' E 031°11'0 0.0
2017-Jul-18 12:00S 29°39' E 031°11'0 0.1
2017-Jul-18 11:30S 29°39' E 031°11'0 0.0
2017-Jul-18 10:59S 29°39' E 031°11'0 0.0
2017-Jul-18 10:31S 29°39' E 031°11'0 0.0
2017-Jul-18 09:59S 29°39' E 031°11'0 0.0
2017-Jul-18 09:30S 29°39' E 031°11'0 0.0
2017-Jul-18 08:59S 29°39' E 031°11'0 0.1
2017-Jul-18 08:30S 29°39' E 031°11'0 0.0
2017-Jul-18 07:59S 29°39' E 031°11'0 0.0
2017-Jul-18 07:29S 29°39' E 031°11'0 0.0
2017-Jul-18 06:59S 29°39' E 031°11'0 0.0
2017-Jul-18 06:30S 29°39' E 031°11'0 0.1
2017-Jul-18 06:00S 29°39' E 031°11'0 0.1
2017-Jul-18 05:29S 29°39' E 031°11'0 0.0
2017-Jul-18 05:00S 29°39' E 031°11'0 0.2
2017-Jul-18 04:28S 29°39' E 031°11'0 0.1
2017-Jul-18 03:58S 29°39' E 031°11'0 0.0
2017-Jul-18 03:28S 29°39' E 031°11'0 0.0
2017-Jul-18 02:58S 29°39' E 031°11'0 0.1
2017-Jul-18 02:28S 29°39' E 031°11'0 0.1
2017-Jul-18 01:58S 29°39' E 031°11'0 0.0
2017-Jul-18 01:28S 29°39' E 031°11'0 0.1
2017-Jul-18 00:58S 29°39' E 031°11'0 0.0
2017-Jul-18 00:28S 29°39' E 031°11'0 0.0
2017-Jul-17 23:58S 29°39' E 031°11'0 0.1
2017-Jul-17 23:28S 29°39' E 031°11'0 0.1
2017-Jul-17 22:58S 29°39' E 031°11'0 0.2
2017-Jul-17 22:29S 29°39' E 031°11'0 0.2
2017-Jul-17 21:59S 29°39' E 031°11'0 0.0
2017-Jul-17 21:29S 29°39' E 031°11'0 0.1
2017-Jul-17 21:00S 29°39' E 031°11'0 0.0
2017-Jul-17 20:27S 29°39' E 031°11'0 0.0
2017-Jul-17 20:00S 29°39' E 031°11'0 0.0
2017-Jul-17 19:29S 29°39' E 031°11'0 0.1
2017-Jul-17 19:00S 29°39' E 031°11'0 0.0
2017-Jul-17 18:30S 29°39' E 031°11'0 0.1
2017-Jul-17 17:59S 29°39' E 031°11'0 0.1
2017-Jul-17 17:28S 29°39' E 031°11'0 0.2
2017-Jul-17 16:58S 29°39' E 031°11'0 0.1
2017-Jul-17 16:30S 29°39' E 031°11'0 0.0
2017-Jul-17 15:59S 29°39' E 031°11'0 0.0
2017-Jul-17 15:29S 29°39' E 031°11'0 0.1
2017-Jul-17 14:59S 29°39' E 031°11'0 0.1
2017-Jul-17 14:28S 29°39' E 031°11'0 0.0
2017-Jul-17 13:59S 29°39' E 031°11'0 0.1
2017-Jul-17 13:29S 29°39' E 031°11'0 0.0
2017-Jul-17 12:58S 29°39' E 031°11'0 0.0
2017-Jul-17 12:30S 29°39' E 031°11'0 0.2
2017-Jul-17 12:00S 29°39' E 031°11'2 4.8
2017-Jul-17 11:30S 29°38' E 031°13'4 8.0
2017-Jul-17 11:00S 29°37' E 031°18'3 5.9
2017-Jul-17 10:31S 29°38' E 031°21'4 7.2
2017-Jul-17 10:01S 29°41' E 031°21'4 7.2
2017-Jul-17 09:30S 29°45' E 031°20'2 3.4
2017-Jul-17 09:01S 29°47' E 031°21'3 5.2
2017-Jul-17 08:31S 29°44' E 031°22'2 5.0
2017-Jul-17 08:01S 29°42' E 031°22'3 5.0
2017-Jul-17 07:30S 29°39' E 031°23'3 5.0
2017-Jul-17 07:00S 29°37' E 031°24'2 4.9
2017-Jul-17 06:30S 29°35' E 031°25'2 4.8
2017-Jul-17 06:00S 29°32' E 031°25'1 2.8
2017-Jul-17 05:31S 29°34' E 031°25'4 7.9
2017-Jul-17 05:01S 29°37' E 031°24'4 7.8
2017-Jul-17 04:31S 29°41' E 031°22'4 7.6
2017-Jul-17 04:00S 29°45' E 031°21'4 7.2
2017-Jul-17 03:30S 29°48' E 031°20'4 7.3
2017-Jul-17 03:00S 29°52' E 031°18'4 7.5
2017-Jul-17 02:30S 29°55' E 031°17'611.8
2017-Jul-17 02:00S 30°01' E 031°15'815.2
2017-Jul-17 01:30S 30°08' E 031°11'815.4
2017-Jul-17 01:00S 30°15' E 031°07'815.5
2017-Jul-17 00:30S 30°21' E 031°03'815.6
2017-Jul-17 00:00S 30°28' E 030°58'68614.6
2017-Jul-15 00:59S 34°02' E 018°07'816.4
2017-Jul-15 00:30S 33°54' E 018°04'  

Dump ship's entire track history